»·PEaware :: N7FJ KGEG-KHQM

N7FJ :: KGEG-KHQM

FLIGHT INFORMATION

Flight Status: Arrived
Operator: Privately registered:
United States
More flights under this callsign
Pilot: Zuqi C. (19949)
Aircraft: SOCATA TBM-900
(TBM9)
More flights by this aircraft type
Origin: KGEG Spokane Intl
United States
Destination: KHQM Bowerman
United States
More flights between these airports :: More routes between these airports
Route: SKA TCM
File this flight plan on PilotEdge
Remarks:
Altitude:
(Current/Filed)
26,000ft
Speed:
(Current/Filed)
300kts
Departed: 05-Oct-20 05:45 PM
Arrived: 05-Oct-20 06:53 PM
Distance/Time
Traveled:
263nm/1:08
Distance/Time
To Go:
Arrived

Flight Plot

Page will automatically refresh every two minutes.

Flight plan parsing failed; only flown route is shown


Map Options




Map Legend


Flown Route
Filed Route
Departure Airport
Arrival Airport
Navaid (VOR, NDB)
Fix

Horizontal Profiles

Position Reports

Time Latitude Longitude Heading Altitude Ground
Speed
05-Oct-20 17:31 47.620423 -117.528554 0 2362ft 0kts
05-Oct-20 17:32 47.620423 -117.528554 0 2362ft 0kts
05-Oct-20 17:33 47.620423 -117.528554 0 2362ft 0kts
05-Oct-20 17:34 47.620423 -117.528554 0 2362ft 0kts
05-Oct-20 17:35 47.620423 -117.528554 0 2362ft 0kts
05-Oct-20 17:36 47.620423 -117.528554 0 2362ft 0kts
05-Oct-20 17:37 47.620423 -117.528554 0 2362ft 0kts
05-Oct-20 17:38 47.620423 -117.528554 0 2362ft 0kts
05-Oct-20 17:39 47.621646 -117.528994 8 2359ft 10kts
05-Oct-20 17:40 47.624478 -117.524935 45 2350ft 8kts
05-Oct-20 17:41 47.627669 -117.520133 44 2334ft 19kts
05-Oct-20 17:42 47.630292 -117.517124 314 2321ft 8kts
05-Oct-20 17:43 47.630531 -117.517470 315 2320ft 0kts
05-Oct-20 17:44 47.629375 -117.521069 224 2329ft 61kts
05-Oct-20 17:45 47.610043 -117.549906 223 3691ft 119kts
05-Oct-20 17:46 47.584357 -117.586767 223 5791ft 129kts
05-Oct-20 17:47 47.557615 -117.622345 224 7895ft 132kts
05-Oct-20 17:48 47.528074 -117.657682 224 9911ft 142kts
05-Oct-20 17:49 47.495264 -117.693503 224 11911ft 154kts
05-Oct-20 17:50 47.459361 -117.750367 264 12054ft 219kts
05-Oct-20 17:51 47.453717 -117.833367 270 14479ft 150kts
05-Oct-20 17:52 47.450977 -117.891541 271 16691ft 145kts
05-Oct-20 17:53 47.448187 -117.951787 271 18611ft 149kts
05-Oct-20 17:54 47.445274 -118.014055 271 20651ft 154kts
05-Oct-20 17:55 47.442264 -118.077776 272 22589ft 158kts
05-Oct-20 17:56 47.439130 -118.143316 272 24388ft 162kts
05-Oct-20 17:57 47.435879 -118.210440 272 26039ft 165kts
05-Oct-20 17:58 47.432050 -118.290058 271 26259ft 224kts
05-Oct-20 17:59 47.427043 -118.389844 270 26224ft 257kts
05-Oct-20 18:00 47.421524 -118.498060 270 26192ft 269kts
05-Oct-20 18:01 47.415727 -118.609906 270 26171ft 274kts
05-Oct-20 18:02 47.409786 -118.722481 269 26176ft 275kts
05-Oct-20 18:03 47.403690 -118.835948 269 26175ft 277kts
05-Oct-20 18:04 47.397453 -118.949912 269 26174ft 278kts
05-Oct-20 18:05 47.391091 -119.064062 269 26174ft 280kts
05-Oct-20 18:06 47.384553 -119.179264 269 26173ft 281kts
05-Oct-20 18:07 47.377874 -119.294804 269 26173ft 282kts
05-Oct-20 18:08 47.371081 -119.410374 269 26163ft 282kts
05-Oct-20 18:09 47.364163 -119.526031 269 26154ft 282kts
05-Oct-20 18:10 47.357150 -119.641316 269 26153ft 282kts
05-Oct-20 18:11 47.349978 -119.757250 268 26157ft 282kts
05-Oct-20 18:12 47.342703 -119.872980 268 26150ft 283kts
05-Oct-20 18:13 47.335322 -119.988495 268 26140ft 283kts
05-Oct-20 18:14 47.327818 -120.104109 268 26137ft 283kts
05-Oct-20 18:15 47.320215 -120.219396 268 26137ft 283kts
05-Oct-20 18:16 47.312479 -120.334891 268 26141ft 282kts
05-Oct-20 18:17 47.304616 -120.450571 268 26148ft 282kts
05-Oct-20 18:18 47.296660 -120.565823 268 26161ft 282kts
05-Oct-20 18:20 47.288582 -120.681120 267 26179ft 282kts
05-Oct-20 18:21 47.280404 -120.796228 267 26185ft 283kts
05-Oct-20 18:22 47.272088 -120.911583 267 26184ft 283kts
05-Oct-20 18:23 47.263635 -121.027142 267 26184ft 283kts
05-Oct-20 18:24 47.255040 -121.143091 268 26183ft 283kts
05-Oct-20 18:25 47.248078 -121.235844 268 26189ft 282kts
05-Oct-20 18:26 47.239325 -121.350960 268 26224ft 282kts
05-Oct-20 18:27 47.230497 -121.465597 268 26255ft 282kts
05-Oct-20 18:28 47.221523 -121.580637 268 26254ft 282kts
05-Oct-20 18:29 47.212426 -121.695618 267 26260ft 283kts
05-Oct-20 18:30 47.203228 -121.810416 267 26263ft 283kts
05-Oct-20 18:31 47.193852 -121.926020 267 26267ft 283kts
05-Oct-20 18:32 47.184410 -122.040914 267 26267ft 284kts
05-Oct-20 18:33 47.174592 -122.159048 267 25325ft 306kts
05-Oct-20 18:34 47.164047 -122.283965 266 23875ft 319kts
05-Oct-20 18:35 47.153145 -122.411579 266 22100ft 320kts
05-Oct-20 18:35 47.142623 -122.519041 264 20518ft 320kts
05-Oct-20 18:37 47.125733 -122.665945 263 18226ft 312kts
05-Oct-20 18:38 47.111571 -122.787555 264 17109ft 288kts
05-Oct-20 18:38 47.100145 -122.885201 263 15902ft 294kts
05-Oct-20 18:39 47.086030 -123.004533 263 14313ft 298kts
05-Oct-20 18:41 47.069267 -123.144749 262 12455ft 297kts
05-Oct-20 18:41 47.054309 -123.241785 255 11108ft 290kts
05-Oct-20 18:42 47.030355 -123.354340 255 9507ft 286kts
05-Oct-20 18:43 47.007472 -123.464209 255 7906ft 279kts
05-Oct-20 18:44 46.988004 -123.569612 257 6296ft 261kts
05-Oct-20 18:45 46.973213 -123.671993 260 4770ft 251kts
05-Oct-20 18:46 46.960061 -123.770961 260 3330ft 239kts
05-Oct-20 18:47 46.947805 -123.863154 260 2152ft 222kts
05-Oct-20 18:48 46.936577 -123.948456 260 1086ft 199kts
05-Oct-20 18:49 46.939754 -123.996550 350 681ft 99kts
05-Oct-20 18:50 46.964204 -123.989639 69 762ft 105kts
05-Oct-20 18:51 46.969477 -123.950638 76 105ft 89kts
05-Oct-20 18:52 46.972320 -123.933494 353 17ft 8kts
05-Oct-20 18:53 46.973059 -123.930991 62 17ft 5kts
05-Oct-20 18:54 46.973807 -123.928350 62 15ft 0kts
05-Oct-20 18:55 46.973807 -123.928350 62 15ft 0kts
05-Oct-20 18:56 46.973807 -123.928350 62 15ft 0kts
05-Oct-20 18:57 46.973807 -123.928350 62 15ft 0kts
05-Oct-20 18:58 46.973807 -123.928350 62 15ft 0kts
05-Oct-20 18:59 46.973807 -123.928350 62 15ft 0kts
05-Oct-20 19:00 46.973807 -123.928350 62 15ft 0kts
05-Oct-20 19:01 46.973807 -123.928350 62 15ft 0kts
05-Oct-20 19:02 46.973807 -123.928350 62 15ft 0kts
05-Oct-20 19:03 46.973807 -123.928350 62 15ft 0kts
05-Oct-20 19:04 46.973807 -123.928350 62 15ft 0kts
05-Oct-20 19:05 46.973807 -123.928350 62 15ft 0kts
05-Oct-20 19:06 46.973807 -123.928350 62 15ft 0kts

Navigation Log

Ident Type
Flight plan parsing failed, navigation log unavailable